Observations de surface / France / LFKB

Québec | Canada | États-Unis | France | UK | Europe | Ailleurs

Affichage: Infos & localisation pour LFKB | Aide pour décoder les METARs

LFKB BASTIA/PORETTA -- FR
Raw surface observations for station LFKB
LFKB 211700Z VRB02KT 9999 FEW026 BKN060 BKN250 10/04 Q1022 NOSIG=
LFKB 211630Z VRB02KT 9999 FEW026 BKN060 BKN250 10/05 Q1022 NOSIG=
LFKB 211600Z VRB02KT 9999 FEW026 BKN060 BKN250 10/05 Q1022 NOSIG=
LFKB 211530Z 18004KT 150V210 9999 FEW026 BKN060 BKN250 11/05 Q1022 NOSIG=
LFKB 211500Z VRB03KT 9999 FEW026 BKN060 BKN250 11/05 Q1022 NOSIG=
LFKB 211430Z 15004KT 120V180 9999 FEW026 BKN060 BKN250 11/05 Q1022 NOSIG=
LFKB 211410Z 14004KT 9999 FEW026 SCT033 BKN250 12/05 Q1022 NOSIG=
LFKB 211330Z 15004KT 9999 FEW026 SCT033 BKN250 11/05 Q1022 NOSIG=
LFKB 211300Z 15007KT 110V180 9999 FEW026 SCT033 BKN250 12/05 Q1023 NOSIG=
LFKB 211230Z 13007KT 9999 FEW026 SCT033 BKN250 12/06 Q1023 NOSIG=
LFKB 211200Z 14007KT 110V170 9999 FEW026 SCT033 12/05 Q1023 NOSIG=
LFKB 211130Z 13008KT 9999 FEW026 SCT033 12/05 Q1024 NOSIG=
LFKB 211100Z 12009KT 9999 FEW026 SCT033 12/05 Q1024 NOSIG=
LFKB 211030Z 12009KT 9999 FEW026 SCT033 BKN250 12/05 Q1025 NOSIG=
LFKB 211000Z 11009KT 080V150 9999 FEW026 SCT033 BKN250 11/05 Q1025 NOSIG=
LFKB 210930Z 12006KT 9999 FEW026 BKN033 11/05 Q1025 NOSIG=
LFKB 210900Z 13003KT 100V210 9999 FEW026 BKN033 BKN240 10/06 Q1025 NOSIG=
LFKB 210830Z VRB03KT 9999 FEW026 SCT030 BKN240 10/06 Q1025 NOSIG=
LFKB 210800Z 21004KT 9999 FEW026 SCT030 BKN240 08/06 Q1025 NOSIG=
LFKB 210730Z 21003KT 9999 SCT026 BKN230 07/04 Q1025 NOSIG=
LFKB 210700Z 19003KT 9999 BKN026 BKN230 07/04 Q1025 NOSIG=
LFKB 210630Z 19003KT 9999 BKN026 OVC250 07/04 Q1025 NOSIG=
LFKB 210600Z 20003KT 9999 BKN026 BKN060 07/05 Q1025 NOSIG=
LFKB 210530Z VRB03KT 9999 BKN026 BKN060 07/05 Q1025 NOSIG=
LFKB 210500Z 23003KT 9999 BKN026 BKN060 07/05 Q1025 NOSIG=
LFKB 210430Z VRB02KT 9999 SCT025 BKN033 BKN060 07/05 Q1025 NOSIG=
LFKB 210330Z VRB03KT 9999 SCT025 BKN033 BKN060 05/04 Q1025 NOSIG=
LFKB 210300Z VRB02KT 9999 SCT025 BKN033 BKN060 05/04 Q1026 NOSIG=
LFKB 210230Z 23003KT 9999 FEW030 BKN043 BKN060 05/03 Q1026 NOSIG=
LFKB 210214Z 00000KT 9999 FEW030 BKN043 BKN060 05/03 Q1026 NOSIG=
LFKB 210130Z 25002KT 9999 FEW030 BKN043 BKN060 05/03 Q1026 NOSIG=
LFKB 210100Z AUTO 25003KT 9999 BKN033 BKN043 BKN050 04/02 Q1026 NOSIG=
LFKB 210030Z AUTO 27002KT 9999 FEW033 BKN076 03/01 Q1026 NOSIG=
LFKB 210000Z AUTO 28003KT 9999 FEW056 03/01 Q1026 NOSIG=
LFKB 202330Z AUTO 00000KT 9999 FEW056 03/01 Q1026 NOSIG=
LFKB 202300Z AUTO 24004KT CAVOK 03/01 Q1027 NOSIG=
LFKB 202230Z 24004KT 9999 FEW033 04/01 Q1027 NOSIG=
LFKB 202200Z 24005KT 9999 FEW033 04/01 Q1027 NOSIG=
LFKB 202130Z 24006KT 9999 FEW033 04/02 Q1027 NOSIG=
LFKB 202100Z 24005KT 9999 FEW033 04/01 Q1027 NOSIG=
LFKB 202030Z 24005KT 9999 FEW033 04/01 Q1027 NOSIG=
LFKB 202000Z 24005KT 9999 FEW031 04/01 Q1027 NOSIG=
LFKB 201930Z 24005KT 9999 FEW031 04/02 Q1027 NOSIG=
LFKB 201905Z 23004KT 9999 FEW031 04/02 Q1027 NOSIG=
LFKB 201830Z 24005KT 9999 FEW031 05/03 Q1027 NOSIG=
LFKB 201800Z 23005KT 9999 FEW031 04/02 Q1027 NOSIG=
LFKB 201730Z 23004KT 9999 FEW031 05/03 Q1027 NOSIG=
LFKB 201700Z 24002KT 9999 FEW031 06/03 Q1027 NOSIG=